createdAt,value
2017-10-19T00:00:04.695Z,37.95
2017-10-19T00:02:32.277Z,28.08
2017-10-19T00:04:59.898Z,25.65
2017-10-19T00:07:28.266Z,33.33
2017-10-19T00:09:56.660Z,24.55
2017-10-19T00:12:24.253Z,20.55
2017-10-19T00:14:51.830Z,24.10
2017-10-19T00:17:19.473Z,25.88
2017-10-19T00:19:47.055Z,23.20
2017-10-19T00:22:14.648Z,20.40
2017-10-19T00:24:43.046Z,20.25
2017-10-19T00:27:10.629Z,22.80
2017-10-19T00:29:38.271Z,21.25
2017-10-19T00:32:06.683Z,23.15
2017-10-19T00:34:34.311Z,38.13
2017-10-19T00:37:01.927Z,28.70
2017-10-19T00:39:29.658Z,31.85
2017-10-19T00:41:57.236Z,26.30
2017-10-19T00:44:24.817Z,17.50
2017-10-19T00:46:52.458Z,22.83
2017-10-19T00:49:20.121Z,35.78
2017-10-19T00:51:47.713Z,25.62
2017-10-19T00:54:15.308Z,27.92
2017-10-19T00:56:42.924Z,21.62
2017-10-19T00:59:10.500Z,23.27
2017-10-19T01:01:38.156Z,25.17
2017-10-19T01:04:05.777Z,24.48
2017-10-19T01:06:33.434Z,18.00
2017-10-19T01:09:01.089Z,26.35
2017-10-19T01:11:28.758Z,25.48
2017-10-19T01:13:56.339Z,24.37
2017-10-19T01:16:23.963Z,25.88
2017-10-19T01:18:52.331Z,17.83
2017-10-19T01:21:20.724Z,17.30
2017-10-19T01:23:48.370Z,23.23
2017-10-19T01:26:15.992Z,30.00
2017-10-19T01:28:43.623Z,17.45
2017-10-19T01:31:11.210Z,21.98
2017-10-19T01:33:38.851Z,30.85
2017-10-19T01:36:06.463Z,22.00
2017-10-19T01:38:34.101Z,19.50
2017-10-19T01:41:01.745Z,19.37
2017-10-19T01:43:29.359Z,24.25
2017-10-19T01:45:57.767Z,21.40
2017-10-19T01:48:25.364Z,33.22
2017-10-19T01:50:53.004Z,17.23
2017-10-19T01:53:20.611Z,27.05
2017-10-19T01:55:48.205Z,18.95
2017-10-19T01:58:16.599Z,21.80
2017-10-19T02:00:44.178Z,24.15
2017-10-19T02:03:11.796Z,23.17
2017-10-19T02:05:40.147Z,21.27
2017-10-19T02:08:07.786Z,19.35
2017-10-19T02:10:35.389Z,18.77
2017-10-19T02:13:03.024Z,21.42
2017-10-19T02:15:30.635Z,34.60
2017-10-19T02:17:59.049Z,17.52
2017-10-19T02:20:26.647Z,19.92
2017-10-19T02:22:54.240Z,16.05
2017-10-19T02:25:22.652Z,22.02
2017-10-19T02:27:50.248Z,16.62
2017-10-19T02:30:17.860Z,21.90
2017-10-19T02:32:45.513Z,22.37
2017-10-19T02:35:13.109Z,19.60
2017-10-19T02:37:40.709Z,21.20
2017-10-19T02:40:08.336Z,16.60
2017-10-19T02:42:35.914Z,19.73
2017-10-19T02:45:03.499Z,23.65
2017-10-19T02:47:31.889Z,17.40
2017-10-19T02:50:00.296Z,17.30
2017-10-19T02:52:27.885Z,24.08
2017-10-19T02:54:55.521Z,18.42
2017-10-19T02:57:23.125Z,22.35
2017-10-19T02:59:50.708Z,20.42
2017-10-19T03:02:20.952Z,17.90
2017-10-19T03:04:48.575Z,17.90
2017-10-19T03:07:16.177Z,24.50
2017-10-19T03:09:43.827Z,19.73
2017-10-19T03:12:12.190Z,22.23
2017-10-19T03:14:39.843Z,21.02
2017-10-19T03:17:07.478Z,21.23
2017-10-19T03:19:35.109Z,23.50
2017-10-19T03:22:02.727Z,28.95
2017-10-19T03:24:30.338Z,25.58
2017-10-19T03:26:57.922Z,22.60
2017-10-19T03:29:25.574Z,26.45
2017-10-19T03:31:53.969Z,24.63
2017-10-19T03:34:21.580Z,25.08
2017-10-19T03:36:49.208Z,25.70
2017-10-19T03:39:16.817Z,27.25
2017-10-19T03:41:44.432Z,29.63
2017-10-19T03:44:12.047Z,20.90
2017-10-19T03:46:39.644Z,21.83
2017-10-19T03:49:07.328Z,28.08
2017-10-19T03:51:34.937Z,24.33
2017-10-19T03:54:02.620Z,21.83
2017-10-19T03:56:30.224Z,18.15
2017-10-19T03:58:58.646Z,22.17
2017-10-19T04:01:26.316Z,26.42
2017-10-19T04:03:53.934Z,23.67
2017-10-19T04:06:22.301Z,20.30
2017-10-19T04:08:49.886Z,32.38
2017-10-19T04:11:17.520Z,18.42
2017-10-19T04:13:45.110Z,19.77
2017-10-19T04:16:12.718Z,19.67
2017-10-19T04:18:40.335Z,20.25
2017-10-19T04:21:08.746Z,27.83
2017-10-19T04:23:36.352Z,18.40
2017-10-19T04:26:03.938Z,18.23
2017-10-19T04:28:32.357Z,22.37
2017-10-19T04:30:59.964Z,21.23
2017-10-19T04:33:28.329Z,32.10
2017-10-19T04:35:55.986Z,19.20
2017-10-19T04:38:23.587Z,20.40
2017-10-19T04:40:51.241Z,23.50
2017-10-19T04:43:18.869Z,40.15
2017-10-19T04:45:46.444Z,24.45
2017-10-19T04:48:14.100Z,23.15
2017-10-19T04:50:41.679Z,17.65
2017-10-19T04:53:10.234Z,22.25
2017-10-19T04:55:37.883Z,21.55
2017-10-19T04:58:05.514Z,38.60
2017-10-19T05:00:33.122Z,36.78
2017-10-19T05:03:00.765Z,25.00
2017-10-19T05:05:28.414Z,19.50
2017-10-19T05:07:56.048Z,26.98
2017-10-19T05:10:24.438Z,18.52
2017-10-19T05:12:52.159Z,20.15
2017-10-19T05:15:19.821Z,21.55
2017-10-19T05:17:47.405Z,19.20
2017-10-19T05:20:15.407Z,29.55
2017-10-19T05:22:43.017Z,24.25
2017-10-19T05:25:10.674Z,20.42
2017-10-19T05:27:39.156Z,21.30
2017-10-19T05:30:06.765Z,17.45
2017-10-19T05:32:34.484Z,19.65
2017-10-19T05:35:02.284Z,19.00
2017-10-19T05:37:29.925Z,25.30
2017-10-19T05:39:58.393Z,34.10
2017-10-19T05:42:26.429Z,16.60
2017-10-19T05:44:54.149Z,22.37
2017-10-19T05:47:21.818Z,30.30
2017-10-19T05:50:01.261Z,26.35
2017-10-19T05:52:29.447Z,38.58
2017-10-19T05:54:58.003Z,27.17
2017-10-19T05:57:26.858Z,32.97
2017-10-19T05:59:55.363Z,34.10
2017-10-19T06:02:23.998Z,27.05
2017-10-19T06:04:51.617Z,25.70
2017-10-19T06:07:19.201Z,23.60
2017-10-19T06:09:47.603Z,23.87
2017-10-19T06:12:15.305Z,37.72
2017-10-19T06:14:43.094Z,40.60
2017-10-19T06:17:10.829Z,38.15
2017-10-19T06:19:38.588Z,32.85
2017-10-19T06:22:07.217Z,38.42
2017-10-19T06:24:35.581Z,39.80
2017-10-19T06:27:03.623Z,43.35
2017-10-19T06:29:31.260Z,29.30
2017-10-19T06:31:59.176Z,23.95
2017-10-19T06:34:26.808Z,26.15
2017-10-19T06:36:55.812Z,21.17
2017-10-19T06:39:24.205Z,28.33
2017-10-19T06:41:51.823Z,39.95
2017-10-19T06:44:19.416Z,34.28
2017-10-19T06:46:47.062Z,27.80
2017-10-19T06:49:14.966Z,54.92
2017-10-19T06:51:43.396Z,46.25
2017-10-19T06:54:12.212Z,37.22
2017-10-19T06:56:41.146Z,47.17
2017-10-19T06:59:08.754Z,41.65
2017-10-19T07:01:36.389Z,48.75
2017-10-19T07:04:04.893Z,41.65
2017-10-19T07:06:32.486Z,26.20
2017-10-19T07:09:00.167Z,32.20
2017-10-19T07:11:27.779Z,26.67
2017-10-19T07:13:55.515Z,43.83
2017-10-19T07:16:24.383Z,46.28
2017-10-19T07:18:53.308Z,37.50
2017-10-19T07:21:21.316Z,35.60
2017-10-19T07:23:49.132Z,33.13
2017-10-19T07:26:16.774Z,30.02
2017-10-19T07:28:44.362Z,25.27
2017-10-19T07:31:13.199Z,36.67
2017-10-19T07:33:41.134Z,31.85
2017-10-19T07:36:08.765Z,23.85
2017-10-19T07:38:36.355Z,25.45
2017-10-19T07:41:04.856Z,33.97
2017-10-19T07:43:32.846Z,31.83
2017-10-19T07:46:01.574Z,33.35
2017-10-19T07:48:29.385Z,26.45
2017-10-19T07:50:56.987Z,22.52
2017-10-19T07:53:24.667Z,31.45
2017-10-19T07:55:52.434Z,33.88
2017-10-19T07:58:20.819Z,28.15
2017-10-19T08:00:48.455Z,40.08
2017-10-19T08:03:16.241Z,30.55
2017-10-19T08:05:44.827Z,34.33
2017-10-19T08:08:13.270Z,27.27
2017-10-19T08:10:40.931Z,58.33
2017-10-19T08:13:08.622Z,30.50
2017-10-19T08:15:37.037Z,24.95
2017-10-19T08:18:04.707Z,34.65
2017-10-19T08:20:32.429Z,37.20
2017-10-19T08:23:00.348Z,35.38
2017-10-19T08:25:36.843Z,49.70
2017-10-19T08:28:04.550Z,31.25
2017-10-19T08:30:33.727Z,48.78
2017-10-19T08:33:02.111Z,31.58
2017-10-19T08:35:29.764Z,34.35
2017-10-19T08:37:57.379Z,37.33
2017-10-19T08:40:25.029Z,33.53
2017-10-19T08:42:53.452Z,25.42
2017-10-19T08:45:21.084Z,37.88
2017-10-19T08:47:48.770Z,37.35
2017-10-19T08:50:16.421Z,37.33
2017-10-19T08:52:44.063Z,41.58
2017-10-19T08:55:11.781Z,54.15
2017-10-19T08:57:40.248Z,24.05
2017-10-19T09:00:07.864Z,38.92
2017-10-19T09:02:35.572Z,33.80
2017-10-19T09:05:03.172Z,45.00
2017-10-19T09:07:30.849Z,40.30
2017-10-19T09:09:59.277Z,47.55
2017-10-19T09:12:28.838Z,35.25
2017-10-19T09:14:57.028Z,34.08
2017-10-19T09:17:25.199Z,25.62
2017-10-19T09:19:54.084Z,83.90
2017-10-19T09:22:21.751Z,28.33
2017-10-19T09:24:49.372Z,33.83
2017-10-19T09:27:17.034Z,24.65
2017-10-19T09:29:44.647Z,30.30
2017-10-19T09:32:12.272Z,25.88
2017-10-19T09:34:40.696Z,29.00
2017-10-19T09:37:08.306Z,25.75
2017-10-19T09:39:36.013Z,31.00
2017-10-19T09:42:11.716Z,29.20
2017-10-19T09:44:39.392Z,27.80
2017-10-19T09:47:11.982Z,32.72
2017-10-19T09:49:39.630Z,32.38
2017-10-19T09:52:08.064Z,40.15
2017-10-19T09:54:35.789Z,31.42
2017-10-19T09:57:04.586Z,32.67
2017-10-19T09:59:33.921Z,34.28
2017-10-19T10:02:07.692Z,34.10
2017-10-19T10:04:39.368Z,25.83
2017-10-19T10:09:49.585Z,38.87
2017-10-19T10:12:17.284Z,32.83
2017-10-19T10:14:45.687Z,29.77
2017-10-19T10:17:13.455Z,27.83
2017-10-19T10:19:41.043Z,42.07
2017-10-19T10:22:08.935Z,33.33
2017-10-19T10:24:41.707Z,30.10
2017-10-19T10:27:09.416Z,34.37
2017-10-19T10:29:37.771Z,36.33
2017-10-19T10:32:06.158Z,68.17
2017-10-19T10:34:33.825Z,33.17
2017-10-19T10:37:02.236Z,46.83
2017-10-19T10:39:29.897Z,52.73
2017-10-19T10:41:57.565Z,41.37
2017-10-19T10:44:25.191Z,42.70
2017-10-19T10:46:53.597Z,42.13
2017-10-19T10:49:21.325Z,49.20
2017-10-19T10:51:49.084Z,54.50
2017-10-19T10:54:16.731Z,32.77
2017-10-19T10:56:44.388Z,45.37
2017-10-19T10:59:11.985Z,32.57
2017-10-19T11:01:40.669Z,38.33
2017-10-19T11:04:09.287Z,39.00
2017-10-19T11:06:38.482Z,37.83
2017-10-19T11:09:07.886Z,28.10
2017-10-19T11:11:37.078Z,39.53
2017-10-19T11:14:19.020Z,29.83
2017-10-19T11:16:54.634Z,27.40
2017-10-19T11:19:22.319Z,43.13
2017-10-19T11:21:50.038Z,38.70
2017-10-19T11:24:18.664Z,37.17
2017-10-19T11:26:47.418Z,22.63
2017-10-19T11:29:15.542Z,23.50
2017-10-19T11:31:43.964Z,46.47
2017-10-19T11:34:23.890Z,37.47
2017-10-19T11:36:51.841Z,28.57
2017-10-19T11:39:20.840Z,20.73
2017-10-19T11:41:48.950Z,14.93
2017-10-19T11:44:16.920Z,18.57
2017-10-19T11:46:45.761Z,29.70
2017-10-19T11:49:13.958Z,39.23
2017-10-19T11:51:42.052Z,19.90
2017-10-19T11:54:10.027Z,22.50
2017-10-19T11:56:38.071Z,18.20
2017-10-19T11:59:06.026Z,30.40
2017-10-19T12:01:33.989Z,21.13
2017-10-19T12:04:01.750Z,15.80
2017-10-19T12:06:29.374Z,22.73
2017-10-19T12:08:57.019Z,20.40
2017-10-19T12:11:24.665Z,23.37
2017-10-19T12:13:52.341Z,16.90
2017-10-19T12:16:20.068Z,27.63
2017-10-19T12:18:47.692Z,12.57
2017-10-19T12:21:15.612Z,15.90
2017-10-19T12:23:43.643Z,17.43
2017-10-19T12:26:11.509Z,14.50
2017-10-19T12:28:39.512Z,14.57
2017-10-19T12:31:07.402Z,18.10
2017-10-19T12:33:35.128Z,12.30
2017-10-19T12:36:02.758Z,14.93
2017-10-19T12:38:30.420Z,17.50
2017-10-19T12:40:58.783Z,11.30
2017-10-19T12:43:26.347Z,9.53
2017-10-19T12:45:54.063Z,19.77
2017-10-19T12:48:21.748Z,11.43
2017-10-19T12:50:49.342Z,8.97
2017-10-19T12:53:17.016Z,13.23
2017-10-19T12:55:47.675Z,11.00
2017-10-19T12:58:15.327Z,10.00
2017-10-19T13:00:43.717Z,12.50
2017-10-19T13:03:11.424Z,8.50
2017-10-19T13:05:39.051Z,9.40
2017-10-19T13:08:06.710Z,8.00
2017-10-19T13:10:34.858Z,6.53
2017-10-19T13:13:03.603Z,10.50
2017-10-19T13:15:31.311Z,13.10
2017-10-19T13:17:59.751Z,9.63
2017-10-19T13:20:27.422Z,10.90
2017-10-19T13:22:55.007Z,17.50
2017-10-19T13:25:22.632Z,11.93
2017-10-19T13:27:50.216Z,11.03
2017-10-19T13:30:17.834Z,11.90
2017-10-19T13:32:45.515Z,15.73
2017-10-19T13:35:13.307Z,7.80
2017-10-19T13:37:40.944Z,6.77
2017-10-19T13:40:08.589Z,15.50
2017-10-19T13:42:36.179Z,8.40
2017-10-19T13:45:04.593Z,9.93
2017-10-19T13:47:33.010Z,9.80
2017-10-19T13:50:00.687Z,11.13
2017-10-19T13:52:28.279Z,27.10
2017-10-19T13:54:55.928Z,12.17
2017-10-19T13:57:23.559Z,9.43
2017-10-19T13:59:52.010Z,8.50
2017-10-19T14:02:20.369Z,9.40
2017-10-19T14:04:48.006Z,12.93
2017-10-19T14:07:15.628Z,11.20
2017-10-19T14:09:43.220Z,10.73
2017-10-19T14:12:10.843Z,19.40
2017-10-19T14:14:39.269Z,13.03
2017-10-19T14:17:06.892Z,11.43
2017-10-19T14:19:34.587Z,9.97
2017-10-19T14:22:02.183Z,12.77
2017-10-19T14:24:29.823Z,14.37
2017-10-19T14:26:57.489Z,10.10
2017-10-19T14:29:25.067Z,12.20
2017-10-19T14:31:52.690Z,9.40
2017-10-19T14:34:20.408Z,12.07
2017-10-19T14:36:48.124Z,9.90
2017-10-19T14:39:15.864Z,9.40
2017-10-19T14:41:43.467Z,9.13
2017-10-19T14:44:11.728Z,11.73
2017-10-19T14:46:40.292Z,6.90
2017-10-19T14:49:08.008Z,17.13
2017-10-19T14:51:35.645Z,10.57
2017-10-19T14:54:03.316Z,20.70
2017-10-19T14:56:31.001Z,10.20
2017-10-19T14:58:58.634Z,16.43
2017-10-19T15:01:27.140Z,19.30
2017-10-19T15:03:55.531Z,14.17
2017-10-19T15:06:24.106Z,12.30
2017-10-19T15:08:51.823Z,13.50
2017-10-19T15:11:19.444Z,11.43
2017-10-19T15:13:47.087Z,15.20
2017-10-19T15:16:14.721Z,10.53
2017-10-19T15:18:42.351Z,13.93
2017-10-19T15:21:10.886Z,9.37
2017-10-19T15:23:38.476Z,8.03
2017-10-19T15:26:06.133Z,20.50
2017-10-19T15:28:33.830Z,15.60
2017-10-19T15:31:05.266Z,8.53
2017-10-19T15:33:33.703Z,14.00
2017-10-19T15:36:01.357Z,8.70
2017-10-19T15:38:29.027Z,8.80
2017-10-19T15:40:57.384Z,10.87
2017-10-19T15:43:25.054Z,9.23
2017-10-19T15:45:52.752Z,8.00
2017-10-19T15:48:20.338Z,9.13
2017-10-19T15:51:08.029Z,8.40
2017-10-19T15:53:35.940Z,24.37
2017-10-19T15:56:03.797Z,8.67
2017-10-19T15:58:31.466Z,12.43
2017-10-19T16:00:59.823Z,11.90
2017-10-19T16:03:27.488Z,18.60
2017-10-19T16:05:55.150Z,30.73
2017-10-19T16:08:25.864Z,18.30
2017-10-19T16:10:55.456Z,15.43
2017-10-19T16:13:27.115Z,16.90
2017-10-19T16:15:57.792Z,21.20
2017-10-19T16:18:28.231Z,13.53
2017-10-19T16:21:03.734Z,12.93
2017-10-19T16:23:33.491Z,10.60
2017-10-19T16:26:04.156Z,23.27
2017-10-19T16:28:34.383Z,14.00
2017-10-19T16:31:04.313Z,31.60
2017-10-19T16:33:34.678Z,16.43
2017-10-19T16:36:05.948Z,15.30
2017-10-19T16:38:36.382Z,20.40
2017-10-19T16:41:07.426Z,16.60
2017-10-19T16:43:40.061Z,17.03
2017-10-19T16:46:10.193Z,12.67
2017-10-19T16:48:48.377Z,13.67
2017-10-19T16:51:19.342Z,22.93
2017-10-19T16:53:49.535Z,18.17
2017-10-19T16:56:19.410Z,19.50
2017-10-19T16:58:54.795Z,30.17
2017-10-19T17:01:24.208Z,19.37
2017-10-19T17:04:03.515Z,17.83
2017-10-19T17:06:34.326Z,20.20
2017-10-19T17:09:05.069Z,45.37
2017-10-19T17:11:35.072Z,17.03
2017-10-19T17:14:04.997Z,22.30
2017-10-19T17:16:35.941Z,15.50
2017-10-19T17:19:08.202Z,15.10
2017-10-19T17:21:38.355Z,14.03
2017-10-19T17:24:09.872Z,15.03
2017-10-19T17:26:40.951Z,17.53
2017-10-19T17:29:10.681Z,13.77
2017-10-19T17:31:40.580Z,16.75
2017-10-19T17:34:14.134Z,23.03
2017-10-19T17:36:53.177Z,19.97
2017-10-19T17:39:25.568Z,21.10
2017-10-19T17:41:58.100Z,21.70
2017-10-19T17:44:31.317Z,27.23
2017-10-19T17:47:11.941Z,18.52
2017-10-19T17:49:42.850Z,37.00
2017-10-19T17:52:12.823Z,18.50
2017-10-19T17:54:42.531Z,22.17
2017-10-19T17:57:12.155Z,18.75
2017-10-19T17:59:43.403Z,24.95
2017-10-19T18:02:13.888Z,23.27
2017-10-19T18:04:44.045Z,24.00
2017-10-19T18:07:15.404Z,17.67
2017-10-19T18:09:46.980Z,16.37
2017-10-19T18:12:19.726Z,21.77
2017-10-19T18:14:51.616Z,17.30
2017-10-19T18:17:21.372Z,13.38
2017-10-19T18:19:51.263Z,15.02
2017-10-19T18:22:20.980Z,25.62
2017-10-19T18:24:50.759Z,18.17
2017-10-19T18:27:22.160Z,36.08
2017-10-19T18:29:55.571Z,32.95
2017-10-19T18:32:25.432Z,19.73
2017-10-19T18:34:55.199Z,31.45
2017-10-19T18:37:25.889Z,21.20
2017-10-19T18:39:57.714Z,19.23
2017-10-19T18:42:29.301Z,24.70
2017-10-19T18:45:02.291Z,24.40
2017-10-19T18:47:31.971Z,28.90
2017-10-19T18:50:03.531Z,19.20
2017-10-19T18:52:36.821Z,15.68
2017-10-19T18:55:08.554Z,20.30
2017-10-19T18:57:38.610Z,20.45
2017-10-19T19:00:10.351Z,18.05
2017-10-19T19:02:40.867Z,22.75
2017-10-19T19:05:13.075Z,16.35
2017-10-19T19:07:43.901Z,21.65
2017-10-19T19:10:14.521Z,16.10
2017-10-19T19:12:44.283Z,18.83
2017-10-19T19:15:13.620Z,25.27
2017-10-19T19:17:43.434Z,21.87
2017-10-19T19:20:13.412Z,12.02
2017-10-19T19:22:43.336Z,14.27
2017-10-19T19:25:13.871Z,31.67
2017-10-19T19:27:44.337Z,12.57
2017-10-19T19:30:15.812Z,17.15
2017-10-19T19:32:45.657Z,17.35
2017-10-19T19:35:15.279Z,16.50
2017-10-19T19:37:46.503Z,21.20
2017-10-19T19:40:16.396Z,14.32
2017-10-19T19:42:48.433Z,31.45
2017-10-19T19:45:18.133Z,18.83
2017-10-19T19:47:48.041Z,14.13
2017-10-19T19:50:18.390Z,18.92
2017-10-19T19:52:49.259Z,14.40
2017-10-19T19:55:19.317Z,20.37
2017-10-19T19:57:48.925Z,24.15
2017-10-19T20:00:18.732Z,14.48
2017-10-19T20:02:48.658Z,16.65
2017-10-19T20:05:18.478Z,17.10
2017-10-19T20:07:48.185Z,19.87
2017-10-19T20:10:18.124Z,17.35
2017-10-19T20:12:48.252Z,28.95
2017-10-19T20:15:18.797Z,20.23
2017-10-19T20:17:48.480Z,24.98
2017-10-19T20:20:18.384Z,19.27
2017-10-19T20:22:48.976Z,28.42
2017-10-19T20:25:18.682Z,22.45
2017-10-19T20:27:48.223Z,32.63
2017-10-19T20:30:17.642Z,71.70
2017-10-19T20:32:47.203Z,37.80
2017-10-19T20:35:16.469Z,30.05
2017-10-19T20:37:45.302Z,19.98
2017-10-19T20:40:12.925Z,16.70
2017-10-19T20:42:41.311Z,23.45
2017-10-19T20:45:09.677Z,22.92
2017-10-19T20:47:39.474Z,23.23
2017-10-19T20:50:07.139Z,27.85
2017-10-19T20:52:34.725Z,20.30
2017-10-19T20:55:02.370Z,28.33
2017-10-19T20:57:29.968Z,24.80
2017-10-19T20:59:57.585Z,32.05
2017-10-19T21:02:25.220Z,24.33
2017-10-19T21:04:52.862Z,22.13
2017-10-19T21:07:20.458Z,24.90
2017-10-19T21:09:48.070Z,22.17
2017-10-19T21:12:15.757Z,143.37
2017-10-19T21:14:43.373Z,113.55
2017-10-19T21:17:10.966Z,29.08
2017-10-19T21:19:38.599Z,26.15
2017-10-19T21:22:06.175Z,41.92
2017-10-19T21:24:34.571Z,226.10
2017-10-19T21:27:02.164Z,391.90
2017-10-19T21:29:29.812Z,419.65
2017-10-19T21:31:57.478Z,156.95
2017-10-19T21:34:25.067Z,87.93
2017-10-19T21:36:52.668Z,46.13
2017-10-19T21:39:21.077Z,22.73
2017-10-19T21:41:48.703Z,22.83
2017-10-19T21:44:17.092Z,36.25
2017-10-19T21:46:44.737Z,22.62
2017-10-19T21:49:12.339Z,18.67
2017-10-19T21:51:39.996Z,18.20
2017-10-19T21:54:07.630Z,25.90
2017-10-19T21:56:36.004Z,20.27
2017-10-19T21:59:03.593Z,23.92
2017-10-19T22:01:31.239Z,26.67
2017-10-19T22:03:59.602Z,28.83
2017-10-19T22:06:27.203Z,32.47
2017-10-19T22:08:54.828Z,26.30
2017-10-19T22:11:22.463Z,40.63
2017-10-19T22:13:50.090Z,37.33
2017-10-19T22:16:17.710Z,24.85
2017-10-19T22:18:45.332Z,22.35
2017-10-19T22:21:12.922Z,23.10
2017-10-19T22:23:40.570Z,24.80
2017-10-19T22:26:08.174Z,22.58
2017-10-19T22:28:36.580Z,19.00
2017-10-19T22:31:04.969Z,17.05
2017-10-19T22:33:32.627Z,20.48
2017-10-19T22:36:00.245Z,20.15
2017-10-19T22:38:27.909Z,18.92
2017-10-19T22:40:55.490Z,15.55
2017-10-19T22:43:23.129Z,16.12
2017-10-19T22:45:50.741Z,16.37
2017-10-19T22:48:18.344Z,15.60
2017-10-19T22:50:45.935Z,28.48
2017-10-19T22:53:14.323Z,16.80
2017-10-19T22:55:41.976Z,23.27
2017-10-19T22:58:10.339Z,22.45
2017-10-19T23:00:38.708Z,25.33
2017-10-19T23:03:06.344Z,20.05
2017-10-19T23:05:33.935Z,25.60
2017-10-19T23:08:01.566Z,25.83
2017-10-19T23:10:29.199Z,27.13
2017-10-19T23:12:56.827Z,22.85
2017-10-19T23:15:24.415Z,22.58
2017-10-19T23:17:52.064Z,25.23
2017-10-19T23:20:19.656Z,18.00
2017-10-19T23:22:47.273Z,23.90
2017-10-19T23:25:15.690Z,27.35
2017-10-19T23:27:43.313Z,24.95
2017-10-19T23:30:10.952Z,20.60
2017-10-19T23:32:38.568Z,18.62
2017-10-19T23:35:06.168Z,31.33
2017-10-19T23:37:33.851Z,18.08
2017-10-19T23:40:02.241Z,15.93
2017-10-19T23:42:29.867Z,19.02
2017-10-19T23:44:57.444Z,22.58
2017-10-19T23:47:25.083Z,20.20
2017-10-19T23:49:52.690Z,18.10
2017-10-19T23:52:21.077Z,21.35
2017-10-19T23:54:49.466Z,18.45
2017-10-19T23:57:17.893Z,33.38
2017-10-19T23:59:45.478Z,24.77
